createdAt,value
2022-09-15T00:02:23.116Z,97675.70
2022-09-15T00:04:53.897Z,97672.73
2022-09-15T00:07:23.099Z,97665.86
2022-09-15T00:09:51.488Z,97665.09
2022-09-15T00:12:23.774Z,97666.27
2022-09-15T00:14:52.245Z,97665.56
2022-09-15T00:17:21.000Z,97664.62
2022-09-15T00:19:49.770Z,97666.68
2022-09-15T00:22:20.001Z,97670.14
2022-09-15T00:24:51.240Z,97670.99
2022-09-15T00:27:20.868Z,97671.38
2022-09-15T00:29:50.178Z,97676.11
2022-09-15T00:32:18.431Z,97677.84
2022-09-15T00:34:51.216Z,97678.68
2022-09-15T00:37:19.535Z,97680.83
2022-09-15T00:39:53.891Z,97683.59
2022-09-15T00:43:05.016Z,97683.92
2022-09-15T00:45:37.845Z,97683.80
2022-09-15T00:48:10.870Z,97681.89
2022-09-15T00:50:44.915Z,97681.66
2022-09-15T00:53:16.835Z,97680.27
2022-09-15T00:55:48.464Z,97680.74
2022-09-15T00:58:33.219Z,97680.21
2022-09-15T01:01:10.534Z,97678.02
2022-09-15T01:03:56.133Z,97680.09
2022-09-15T01:06:35.532Z,97674.55
2022-09-15T01:09:16.600Z,97668.02
2022-09-15T01:11:45.115Z,97666.52
2022-09-15T01:14:15.534Z,97666.33
2022-09-15T01:17:01.750Z,97667.39
2022-09-15T01:20:07.089Z,97667.63
2022-09-15T01:23:13.577Z,97668.24
2022-09-15T01:26:11.899Z,97668.83
2022-09-15T01:29:22.599Z,97670.10
2022-09-15T01:32:28.037Z,97672.16
2022-09-15T01:35:14.760Z,97674.85
2022-09-15T01:37:49.048Z,97680.20
2022-09-15T01:40:21.236Z,97681.48
2022-09-15T01:42:51.550Z,97682.26
2022-09-15T01:45:29.157Z,97681.02
2022-09-15T01:48:00.421Z,97683.17
2022-09-15T01:50:44.928Z,97689.28
2022-09-15T01:53:20.623Z,97692.27
2022-09-15T01:56:02.595Z,97698.52
2022-09-15T01:58:31.022Z,97700.44
2022-09-15T02:01:10.295Z,97705.15
2022-09-15T02:04:15.804Z,97705.54
2022-09-15T02:07:03.194Z,97708.17
2022-09-15T02:09:46.766Z,97715.59
2022-09-15T02:12:29.279Z,97720.83
2022-09-15T02:15:05.856Z,97715.83
2022-09-15T02:17:38.412Z,97713.21
2022-09-15T02:20:16.112Z,97721.41
2022-09-15T02:22:50.642Z,97721.98
2022-09-15T02:25:41.163Z,97722.27
2022-09-15T02:28:13.150Z,97725.38
2022-09-15T02:30:45.046Z,97726.20
2022-09-15T02:33:20.618Z,97730.23
2022-09-15T02:35:49.047Z,97737.55
2022-09-15T02:38:18.223Z,97736.58
2022-09-15T02:40:48.391Z,97734.70
2022-09-15T02:43:18.944Z,97735.70
2022-09-15T02:45:47.403Z,97736.81
2022-09-15T02:48:16.386Z,97738.54
2022-09-15T02:50:45.258Z,97744.94
2022-09-15T02:53:13.021Z,97752.96
2022-09-15T02:55:42.090Z,97760.48
2022-09-15T02:58:09.892Z,97758.38
2022-09-15T03:00:39.384Z,97761.88
2022-09-15T03:03:08.509Z,97763.84
2022-09-15T03:05:36.612Z,97770.71
2022-09-15T03:08:04.870Z,97776.79
2022-09-15T03:10:33.846Z,97781.16
2022-09-15T03:13:01.717Z,97788.15
2022-09-15T03:15:29.819Z,97794.14
2022-09-15T03:17:58.136Z,97798.64
2022-09-15T03:20:31.093Z,97805.16
2022-09-15T03:22:59.096Z,97798.43
2022-09-15T03:25:27.791Z,97800.14
2022-09-15T03:27:56.396Z,97801.55
2022-09-15T03:30:24.855Z,97799.48
2022-09-15T03:32:53.751Z,97805.80
2022-09-15T03:35:21.506Z,97809.73
2022-09-15T03:37:49.681Z,97808.73
2022-09-15T03:40:18.650Z,97805.48
2022-09-15T03:42:46.879Z,97810.43
2022-09-15T03:45:16.059Z,97814.79
2022-09-15T03:47:43.776Z,97814.77
2022-09-15T03:50:12.448Z,97818.70
2022-09-15T03:52:40.411Z,97825.94
2022-09-15T03:55:09.706Z,97825.96
2022-09-15T03:57:37.850Z,97824.10
2022-09-15T04:00:08.713Z,97824.23
2022-09-15T04:02:36.662Z,97820.36
2022-09-15T04:05:05.007Z,97824.44
2022-09-15T04:07:34.544Z,97827.76
2022-09-15T04:10:02.580Z,97832.42
2022-09-15T04:12:32.615Z,97831.98
2022-09-15T04:15:01.373Z,97836.78
2022-09-15T04:17:29.503Z,97847.77
2022-09-15T04:19:57.825Z,97843.72
2022-09-15T04:22:26.009Z,97833.23
2022-09-15T04:24:53.919Z,97833.81
2022-09-15T04:27:21.985Z,97833.63
2022-09-15T04:29:53.662Z,97835.08
2022-09-15T04:32:23.872Z,97838.94
2022-09-15T04:34:53.549Z,97843.42
2022-09-15T04:37:22.842Z,97842.33
2022-09-15T04:39:51.799Z,97844.04
2022-09-15T04:42:22.380Z,97847.83
2022-09-15T04:44:51.266Z,97844.61
2022-09-15T04:47:23.168Z,97848.55
2022-09-15T04:49:50.993Z,97854.77
2022-09-15T04:52:19.867Z,97861.35
2022-09-15T04:54:47.726Z,97865.38
2022-09-15T04:57:16.235Z,97861.48
2022-09-15T04:59:44.004Z,97860.87
2022-09-15T05:02:12.548Z,97864.83
2022-09-15T05:04:40.419Z,97870.14
2022-09-15T05:07:08.936Z,97870.98
2022-09-15T05:09:40.627Z,97866.23
2022-09-15T05:12:09.472Z,97858.89
2022-09-15T05:14:37.204Z,97860.06
2022-09-15T05:17:05.408Z,97856.20
2022-09-15T05:19:34.137Z,97851.23
2022-09-15T05:22:03.176Z,97852.37
2022-09-15T05:24:34.121Z,97859.52
2022-09-15T05:27:02.263Z,97860.85
2022-09-15T05:29:30.236Z,97855.98
2022-09-15T05:31:58.437Z,97858.13
2022-09-15T05:34:36.489Z,97855.36
2022-09-15T05:37:05.588Z,97859.92
2022-09-15T05:39:33.768Z,97862.52
2022-09-15T05:42:01.692Z,97860.71
2022-09-15T05:44:29.609Z,97862.88
2022-09-15T05:46:57.432Z,97867.41
2022-09-15T05:49:25.237Z,97868.13
2022-09-15T05:51:53.592Z,97864.46
2022-09-15T05:54:22.251Z,97862.71
2022-09-15T05:56:50.849Z,97856.62
2022-09-15T05:59:19.061Z,97858.89
2022-09-15T06:01:48.123Z,97857.10
2022-09-15T06:04:16.742Z,97856.34
2022-09-15T06:06:44.498Z,97857.80
2022-09-15T06:09:12.564Z,97863.69
2022-09-15T06:11:40.326Z,97869.37
2022-09-15T06:14:08.935Z,97873.63
2022-09-15T06:16:37.326Z,97875.08
2022-09-15T06:19:05.393Z,97874.96
2022-09-15T06:21:33.587Z,97876.13
2022-09-15T06:24:03.949Z,97876.48
2022-09-15T06:26:32.158Z,97879.92
2022-09-15T06:29:03.457Z,97878.83
2022-09-15T06:31:33.610Z,97880.19
2022-09-15T06:34:04.146Z,97873.48
2022-09-15T06:36:33.101Z,97881.25
2022-09-15T06:39:01.147Z,97887.38
2022-09-15T06:41:47.415Z,97886.20
2022-09-15T06:44:21.024Z,97891.33
2022-09-15T06:46:49.563Z,97900.38
2022-09-15T06:49:18.293Z,97898.02
2022-09-15T06:51:46.824Z,97895.39
2022-09-15T06:54:18.818Z,97894.63
2022-09-15T06:56:47.379Z,97904.70
2022-09-15T06:59:19.725Z,97903.43
2022-09-15T07:01:54.781Z,97897.54
2022-09-15T07:04:22.691Z,97901.45
2022-09-15T07:06:50.775Z,97909.85
2022-09-15T07:09:19.727Z,97911.36
2022-09-15T07:11:48.769Z,97912.40
2022-09-15T07:14:16.536Z,97917.80
2022-09-15T07:16:44.975Z,97918.28
2022-09-15T07:19:13.162Z,97923.73
2022-09-15T07:21:40.953Z,97928.86
2022-09-15T07:24:11.120Z,97927.95
2022-09-15T07:26:40.995Z,97922.73
2022-09-15T07:29:09.885Z,97927.84
2022-09-15T07:31:39.182Z,97932.48
2022-09-15T07:34:07.821Z,97935.20
2022-09-15T07:36:35.995Z,97942.58
2022-09-15T07:39:05.575Z,97943.92
2022-09-15T07:41:33.638Z,97948.39
2022-09-15T07:44:01.991Z,97956.81
2022-09-15T07:46:32.862Z,97958.77
2022-09-15T07:49:03.193Z,97963.45
2022-09-15T07:51:31.646Z,97963.34
2022-09-15T07:53:59.806Z,97968.08
2022-09-15T07:56:28.146Z,97969.73
2022-09-15T07:58:56.849Z,97971.92
2022-09-15T08:01:24.681Z,97971.94
2022-09-15T08:03:52.912Z,97973.44
2022-09-15T08:06:23.348Z,97968.64
2022-09-15T08:08:56.325Z,97968.17
2022-09-15T08:11:28.433Z,97964.20
2022-09-15T08:13:56.438Z,97968.63
2022-09-15T08:16:24.925Z,97971.17
2022-09-15T08:18:54.204Z,97970.05
2022-09-15T08:21:23.073Z,97962.65
2022-09-15T08:23:58.366Z,97955.77
2022-09-15T08:26:33.365Z,97954.52
2022-09-15T08:29:01.119Z,97957.63
2022-09-15T08:31:29.022Z,97958.42
2022-09-15T08:33:57.009Z,97963.25
2022-09-15T08:36:28.155Z,97965.11
2022-09-15T08:38:56.840Z,97965.56
2022-09-15T08:41:46.639Z,97964.46
2022-09-15T08:44:44.393Z,97956.98
2022-09-15T08:47:18.075Z,97954.94
2022-09-15T08:50:14.678Z,97952.02
2022-09-15T08:52:48.856Z,97951.08
2022-09-15T08:55:52.337Z,97955.20
2022-09-15T08:58:23.419Z,97953.99
2022-09-15T09:01:02.407Z,97957.16
2022-09-15T09:03:58.341Z,97959.77
2022-09-15T09:06:40.864Z,97956.96
2022-09-15T09:09:42.545Z,97952.05
2022-09-15T09:12:38.413Z,97949.65
2022-09-15T09:15:24.867Z,97946.95
2022-09-15T09:18:29.707Z,97935.70
2022-09-15T09:21:16.565Z,97935.67
2022-09-15T09:24:13.687Z,97943.70
2022-09-15T09:26:42.245Z,97948.01
2022-09-15T09:29:21.015Z,97943.73
2022-09-15T09:31:50.887Z,97940.09
2022-09-15T09:34:45.726Z,97942.87
2022-09-15T09:37:15.828Z,97947.55
2022-09-15T09:39:43.755Z,97954.46
2022-09-15T09:42:16.979Z,97950.43
2022-09-15T09:44:46.496Z,97935.52
2022-09-15T09:47:15.706Z,97935.74
2022-09-15T09:49:47.316Z,97934.60
2022-09-15T09:52:39.256Z,97931.36
2022-09-15T09:55:23.288Z,97933.41
2022-09-15T09:57:51.414Z,97939.53
2022-09-15T10:00:37.494Z,97941.90
2022-09-15T10:03:12.890Z,97939.46
2022-09-15T10:05:41.989Z,97935.31
2022-09-15T10:08:20.657Z,97938.82
2022-09-15T10:10:59.714Z,97936.44
2022-09-15T10:13:27.788Z,97934.12
2022-09-15T10:15:59.695Z,97935.12
2022-09-15T10:18:37.990Z,97922.63
2022-09-15T10:21:09.017Z,97918.48
2022-09-15T10:23:37.426Z,97924.98
2022-09-15T10:26:33.799Z,97923.66
2022-09-15T10:29:17.738Z,97921.59
2022-09-15T10:31:46.308Z,97920.70
2022-09-15T10:34:31.727Z,97921.36
2022-09-15T10:37:20.785Z,97919.55
2022-09-15T10:39:54.626Z,97920.56
2022-09-15T10:42:34.153Z,97920.58
2022-09-15T10:45:25.920Z,97921.14
2022-09-15T10:48:29.588Z,97922.80
2022-09-15T10:51:16.218Z,97922.44
2022-09-15T10:53:58.506Z,97916.68
2022-09-15T10:56:46.060Z,97911.48
2022-09-15T10:59:43.308Z,97906.08
2022-09-15T11:02:28.065Z,97912.10
2022-09-15T11:05:20.391Z,97915.14
2022-09-15T11:07:57.612Z,97918.73
2022-09-15T11:10:31.741Z,97920.61
2022-09-15T11:13:16.627Z,97917.84
2022-09-15T11:16:03.759Z,97914.11
2022-09-15T11:18:42.661Z,97913.55
2022-09-15T11:21:27.809Z,97909.04
2022-09-15T11:24:24.955Z,97907.92
2022-09-15T11:27:04.428Z,97908.77
2022-09-15T11:29:55.074Z,97905.73
2022-09-15T11:32:34.397Z,97906.33
2022-09-15T11:35:36.757Z,97906.60
2022-09-15T11:38:57.816Z,97906.77
2022-09-15T11:41:59.714Z,97910.48
2022-09-15T11:44:40.215Z,97910.13
2022-09-15T11:47:20.573Z,97905.33
2022-09-15T11:50:11.937Z,97903.49
2022-09-15T11:53:04.549Z,97900.03
2022-09-15T11:56:05.910Z,97900.86
2022-09-15T11:59:13.430Z,97900.27
2022-09-15T12:02:08.721Z,97900.27
2022-09-15T12:04:45.621Z,97901.27
2022-09-15T12:07:20.869Z,97894.79
2022-09-15T12:09:50.067Z,97889.16
2022-09-15T12:12:20.836Z,97888.66
2022-09-15T12:14:51.888Z,97890.17
2022-09-15T12:17:39.958Z,97886.04
2022-09-15T12:20:22.535Z,97888.20
2022-09-15T12:23:15.772Z,97887.60
2022-09-15T12:26:15.544Z,97881.41
2022-09-15T12:28:56.225Z,97883.45
2022-09-15T12:31:38.642Z,97888.70
2022-09-15T12:34:34.210Z,97891.55
2022-09-15T12:37:14.754Z,97896.41
2022-09-15T12:39:45.572Z,97894.80
2022-09-15T12:42:25.028Z,97895.98
2022-09-15T12:45:06.164Z,97892.76
2022-09-15T12:47:39.417Z,97888.84
2022-09-15T12:50:20.360Z,97886.36
2022-09-15T12:52:51.953Z,97887.85
2022-09-15T12:55:24.094Z,97889.19
2022-09-15T12:58:01.518Z,97889.24
2022-09-15T13:00:35.737Z,97885.52
2022-09-15T13:03:06.109Z,97882.59
2022-09-15T13:06:03.127Z,97883.11
2022-09-15T13:08:51.239Z,97879.56
2022-09-15T13:11:37.618Z,97881.91
2022-09-15T13:14:45.442Z,97882.01
2022-09-15T13:17:21.143Z,97882.74
2022-09-15T13:19:54.171Z,97882.66
2022-09-15T13:22:39.764Z,97877.25
2022-09-15T13:25:17.923Z,97878.22
2022-09-15T13:27:47.227Z,97880.50
2022-09-15T13:30:21.586Z,97884.34
2022-09-15T13:39:48.241Z,97881.55
2022-09-15T13:42:55.976Z,97886.62
2022-09-15T13:45:39.576Z,97882.23
2022-09-15T13:48:29.329Z,97883.86
2022-09-15T13:51:00.540Z,97882.56
2022-09-15T13:53:49.426Z,97879.98
2022-09-15T13:56:29.010Z,97881.78
2022-09-15T13:59:08.949Z,97879.85
2022-09-15T14:01:42.589Z,97876.34
2022-09-15T14:04:17.342Z,97877.31
2022-09-15T14:06:53.644Z,97879.05
2022-09-15T14:09:35.247Z,97876.70
2022-09-15T14:12:09.220Z,97876.50
2022-09-15T14:14:51.553Z,97865.09
2022-09-15T14:17:24.199Z,97858.49
2022-09-15T14:19:56.206Z,97855.25
2022-09-15T14:22:27.613Z,97864.76
2022-09-15T14:25:08.200Z,97862.71
2022-09-15T14:27:37.981Z,97866.56
2022-09-15T14:30:12.910Z,97864.77
2022-09-15T14:32:47.643Z,97861.47
2022-09-15T14:35:20.574Z,97863.45
2022-09-15T14:37:52.668Z,97861.47
2022-09-15T14:40:34.348Z,97858.59
2022-09-15T14:43:03.279Z,97861.80
2022-09-15T14:46:01.367Z,97863.08
2022-09-15T14:48:28.412Z,97859.20
2022-09-15T14:51:02.792Z,97857.65
2022-09-15T14:53:38.026Z,97851.82
2022-09-15T14:56:11.639Z,97854.74
2022-09-15T14:58:44.833Z,97855.85
2022-09-15T15:01:23.405Z,97853.77
2022-09-15T15:04:10.863Z,97858.30
2022-09-15T15:06:59.275Z,97860.23
2022-09-15T15:09:39.017Z,97866.42
2022-09-15T15:12:16.576Z,97871.38
2022-09-15T15:14:44.773Z,97874.76
2022-09-15T15:17:30.182Z,97875.49
2022-09-15T15:20:13.124Z,97875.29
2022-09-15T15:22:43.465Z,97874.93
2022-09-15T15:25:25.060Z,97875.80
2022-09-15T15:27:55.537Z,97880.34
2022-09-15T15:30:31.727Z,97873.36
2022-09-15T15:33:19.408Z,97875.48
2022-09-15T15:36:00.106Z,97877.04
2022-09-15T15:38:28.365Z,97878.41
2022-09-15T15:41:02.320Z,97882.02
2022-09-15T15:43:30.430Z,97884.50
2022-09-15T15:46:03.804Z,97885.99
2022-09-15T15:48:37.368Z,97885.59
2022-09-15T15:51:07.814Z,97879.77
2022-09-15T15:53:35.825Z,97880.08
2022-09-15T15:56:03.702Z,97875.85
2022-09-15T15:58:31.561Z,97873.21
2022-09-15T16:01:00.192Z,97876.77
2022-09-15T16:03:28.035Z,97885.40
2022-09-15T16:05:59.659Z,97893.19
2022-09-15T16:08:32.056Z,97890.71
2022-09-15T16:11:02.362Z,97894.67
2022-09-15T16:13:31.486Z,97896.80
2022-09-15T16:16:00.709Z,97895.83
2022-09-15T16:18:29.857Z,97898.50
2022-09-15T16:20:58.119Z,97900.66
2022-09-15T16:23:28.787Z,97896.08
2022-09-15T16:26:05.753Z,97899.58
2022-09-15T16:28:33.974Z,97899.58
2022-09-15T16:31:02.297Z,97901.44
2022-09-15T16:33:35.982Z,97900.97
2022-09-15T16:36:09.608Z,97902.88
2022-09-15T16:38:37.912Z,97902.41
2022-09-15T16:41:14.220Z,97900.10
2022-09-15T16:43:43.352Z,97907.20
2022-09-15T16:46:13.393Z,97909.94
2022-09-15T16:48:43.771Z,97910.48
2022-09-15T16:51:31.582Z,97910.64
2022-09-15T16:54:02.003Z,97912.31
2022-09-15T16:56:30.960Z,97916.70
2022-09-15T16:59:00.648Z,97924.61
2022-09-15T17:01:29.138Z,97926.98
2022-09-15T17:03:58.108Z,97918.17
2022-09-15T17:06:25.930Z,97917.35
2022-09-15T17:08:55.957Z,97919.63
2022-09-15T17:11:25.690Z,97919.16
2022-09-15T17:13:54.573Z,97919.17
2022-09-15T17:16:23.117Z,97916.48
2022-09-15T17:18:51.358Z,97923.27
2022-09-15T17:21:20.068Z,97926.95
2022-09-15T17:23:49.653Z,97927.10
2022-09-15T17:26:21.546Z,97925.27
2022-09-15T17:28:51.121Z,97923.75
2022-09-15T17:31:21.948Z,97925.04
2022-09-15T17:33:51.241Z,97926.83
2022-09-15T17:36:19.359Z,97926.45
2022-09-15T17:38:50.983Z,97928.42
2022-09-15T17:41:21.152Z,97926.92
2022-09-15T17:43:50.943Z,97933.54
2022-09-15T17:46:19.944Z,97933.60
2022-09-15T17:48:48.178Z,97930.54
2022-09-15T17:51:18.187Z,97931.26
2022-09-15T17:53:47.984Z,97927.40
2022-09-15T17:56:17.120Z,97928.02
2022-09-15T17:58:48.081Z,97924.73
2022-09-15T18:01:17.098Z,97927.55
2022-09-15T18:03:47.042Z,97932.64
2022-09-15T18:06:15.517Z,97940.08
2022-09-15T18:08:44.649Z,97945.63
2022-09-15T18:11:15.479Z,97950.39
2022-09-15T18:13:43.708Z,97960.66
2022-09-15T18:16:14.228Z,97965.36
2022-09-15T18:18:43.421Z,97964.65
2022-09-15T18:21:26.124Z,97965.46
2022-09-15T18:23:56.364Z,97969.44
2022-09-15T18:26:26.698Z,97971.23
2022-09-15T18:28:56.064Z,97974.46
2022-09-15T18:31:24.971Z,97975.83
2022-09-15T18:33:53.451Z,97974.49
2022-09-15T18:36:21.770Z,97974.73
2022-09-15T18:38:50.534Z,97974.90
2022-09-15T18:41:19.259Z,97979.94
2022-09-15T18:43:51.716Z,97983.88
2022-09-15T18:46:20.925Z,97985.66
2022-09-15T18:48:49.264Z,97984.51
2022-09-15T18:51:24.011Z,97987.73
2022-09-15T18:53:54.503Z,97992.61
2022-09-15T18:56:23.444Z,97996.09
2022-09-15T18:58:55.953Z,97998.33
2022-09-15T19:01:24.689Z,97995.17
2022-09-15T19:03:54.422Z,97994.79
2022-09-15T19:06:23.192Z,97993.35
2022-09-15T19:08:54.636Z,97994.48
2022-09-15T19:11:23.952Z,97993.98
2022-09-15T19:13:53.696Z,97995.46
2022-09-15T19:16:34.492Z,97999.78
2022-09-15T19:19:13.193Z,98002.54
2022-09-15T19:21:42.231Z,98006.89
2022-09-15T19:24:11.553Z,98009.54
2022-09-15T19:26:39.541Z,98008.90
2022-09-15T19:29:15.185Z,98012.02
2022-09-15T19:31:46.631Z,98012.92
2022-09-15T19:34:16.723Z,98012.57
2022-09-15T19:36:45.122Z,98010.44
2022-09-15T19:39:14.967Z,98010.19
2022-09-15T19:41:43.307Z,98013.13
2022-09-15T19:44:11.675Z,98009.56
2022-09-15T19:46:40.253Z,98006.71
2022-09-15T19:49:10.022Z,98008.63
2022-09-15T19:51:38.678Z,98008.47
2022-09-15T19:54:07.886Z,98007.60
2022-09-15T19:56:36.580Z,98013.15
2022-09-15T19:59:06.052Z,98014.83
2022-09-15T20:01:34.418Z,98017.95
2022-09-15T20:04:04.031Z,98020.60
2022-09-15T20:06:33.843Z,98017.58
2022-09-15T20:09:03.947Z,98020.13
2022-09-15T20:11:33.495Z,98024.26
2022-09-15T20:14:02.630Z,98027.71
2022-09-15T20:16:31.346Z,98029.96
2022-09-15T20:19:00.681Z,98029.04
2022-09-15T20:21:51.414Z,98029.83
2022-09-15T20:24:23.172Z,98029.34
2022-09-15T20:26:52.985Z,98029.23
2022-09-15T20:29:21.393Z,98031.98
2022-09-15T20:31:50.560Z,98034.16
2022-09-15T20:34:19.385Z,98034.30
2022-09-15T20:36:48.019Z,98035.90
2022-09-15T20:39:19.571Z,98033.47
2022-09-15T20:41:49.768Z,98034.77
2022-09-15T20:44:18.442Z,98032.81
2022-09-15T20:46:48.455Z,98030.88
2022-09-15T20:49:17.466Z,98027.38
2022-09-15T20:51:46.586Z,98030.55
2022-09-15T20:54:15.323Z,98036.23
2022-09-15T20:56:45.125Z,98032.30
2022-09-15T20:59:15.842Z,98027.77
2022-09-15T21:01:44.114Z,98028.64
2022-09-15T21:04:13.237Z,98028.46
2022-09-15T21:06:41.830Z,98029.59
2022-09-15T21:09:09.857Z,98032.20
2022-09-15T21:11:39.541Z,98030.24
2022-09-15T21:14:07.731Z,98032.01
2022-09-15T21:16:35.648Z,98033.77
2022-09-15T21:19:04.074Z,98040.42
2022-09-15T21:21:33.758Z,98042.38
2022-09-15T21:24:04.836Z,98041.67
2022-09-15T21:26:35.569Z,98048.61
2022-09-15T21:29:04.352Z,98047.84
2022-09-15T21:31:33.668Z,98051.16
2022-09-15T21:34:02.387Z,98049.76
2022-09-15T21:36:32.031Z,98051.72
2022-09-15T21:39:00.445Z,98045.27
2022-09-15T21:41:32.644Z,98050.51
2022-09-15T21:44:01.419Z,98053.58
2022-09-15T21:46:31.476Z,98054.39
2022-09-15T21:49:00.328Z,98054.66
2022-09-15T21:51:29.737Z,98053.88
2022-09-15T21:53:59.795Z,98056.04
2022-09-15T21:56:29.922Z,98058.86
2022-09-15T21:58:57.855Z,98064.81
2022-09-15T22:01:29.468Z,98068.96
2022-09-15T22:04:01.396Z,98069.61
2022-09-15T22:06:32.573Z,98067.85
2022-09-15T22:09:03.566Z,98071.73
2022-09-15T22:11:32.059Z,98075.52
2022-09-15T22:14:03.145Z,98086.51
2022-09-15T22:16:31.418Z,98083.48
2022-09-15T22:19:00.337Z,98082.55
2022-09-15T22:21:33.045Z,98085.67
2022-09-15T22:24:04.914Z,98089.61
2022-09-15T22:26:36.684Z,98093.59
2022-09-15T22:30:07.223Z,98096.33
2022-09-15T22:32:46.168Z,98101.73
2022-09-15T22:35:23.013Z,98103.87
2022-09-15T22:37:50.892Z,98103.10
2022-09-15T22:40:19.128Z,98096.48
2022-09-15T22:42:48.476Z,98098.60
2022-09-15T22:45:16.775Z,98096.70
2022-09-15T22:47:47.733Z,98099.06
2022-09-15T22:50:16.509Z,98099.85
2022-09-15T22:52:44.838Z,98099.95
2022-09-15T22:55:13.677Z,98102.41
2022-09-15T22:57:41.867Z,98102.52
2022-09-15T23:00:12.369Z,98098.77
2022-09-15T23:02:41.042Z,98095.92
2022-09-15T23:05:10.465Z,98092.17
2022-09-15T23:07:38.649Z,98088.75
2022-09-15T23:10:06.926Z,98085.79
2022-09-15T23:12:35.045Z,98082.65
2022-09-15T23:15:04.763Z,98083.42
2022-09-15T23:17:34.588Z,98083.66
2022-09-15T23:20:03.403Z,98080.96
2022-09-15T23:22:32.077Z,98085.70
2022-09-15T23:25:04.412Z,98080.58
2022-09-15T23:27:32.351Z,98083.27
2022-09-15T23:30:06.651Z,98084.64
2022-09-15T23:32:38.608Z,98086.54
2022-09-15T23:35:08.406Z,98087.91
2022-09-15T23:37:36.587Z,98091.94
2022-09-15T23:40:06.090Z,98098.71
2022-09-15T23:42:43.408Z,98101.39
2022-09-15T23:45:11.223Z,98104.80
2022-09-15T23:47:38.954Z,98106.36
2022-09-15T23:50:07.991Z,98104.31
2022-09-15T23:52:36.994Z,98101.23
2022-09-15T23:55:05.255Z,98099.76
2022-09-15T23:57:33.358Z,98097.92
